Time;durP1;ratioP1;P1;durP2;ratioP2;P2;SDS_P1;SDS_P2;PMS_P1;PMS_P2;Temp;Humidity;BMP_temperature;BMP_pressure;BME280_temperature;BME280_humidity;BME280_pressure;Samples;Min_cycle;Max_cycle;Signal;HPM_P1;HPM_P2
2023/04/11 00:02:11;;;;;;;11.77;2.93;;;9.30;99.90;;;;;;4772387;30;20055;-86
2023/04/11 00:04:37;;;;;;;8.93;2.97;;;9.30;99.90;;;;;;4788222;29;20317;-86
2023/04/11 00:07:04;;;;;;;11.53;2.63;;;9.20;99.90;;;;;;4773252;30;20066;-86
2023/04/11 00:09:30;;;;;;;14.53;2.87;;;9.20;99.90;;;;;;4773069;30;20349;-86
2023/04/11 00:11:56;;;;;;;16.07;2.90;;;9.20;99.90;;;;;;4772568;30;20379;-87
2023/04/11 00:14:23;;;;;;;16.30;3.47;;;9.20;99.90;;;;;;4788319;29;20292;-87
2023/04/11 00:16:52;;;;;;;21.10;4.47;;;9.20;99.90;;;;;;4789087;29;20293;-87
2023/04/11 00:19:22;;;;;;;22.10;4.20;;;9.10;99.90;;;;;;4788274;30;20820;-87
2023/04/11 00:21:51;;;;;;;25.27;4.47;;;9.10;99.90;;;;;;4789014;30;20289;-87
2023/04/11 00:24:17;;;;;;;23.03;4.33;;;9.00;99.90;;;;;;4788164;30;20812;-87
2023/04/11 00:26:42;;;;;;;24.33;3.80;;;9.00;99.90;;;;;;4772664;30;20371;-87
2023/04/11 00:29:08;;;;;;;24.13;5.00;;;8.90;99.90;;;;;;4787941;30;20734;-88
2023/04/11 00:31:34;;;;;;;19.30;4.17;;;8.90;99.90;;;;;;4772321;30;20051;-88
2023/04/11 00:34:00;;;;;;;22.37;3.27;;;8.90;99.90;;;;;;4757426;30;20040;-87
2023/04/11 00:36:25;;;;;;;20.93;4.17;;;8.80;99.90;;;;;;4772562;30;20050;-87
2023/04/11 00:38:53;;;;;;;23.40;4.23;;;8.80;99.90;;;;;;4757517;30;20323;-88
2023/04/11 00:41:19;;;;;;;12.70;2.50;;;8.80;99.90;;;;;;4772319;30;20059;-88
2023/04/11 00:43:46;;;;;;;18.30;2.70;;;8.70;99.90;;;;;;4788099;29;20350;-88
2023/04/11 00:46:12;;;;;;;15.70;2.73;;;8.70;99.90;;;;;;4772213;30;20102;-88
2023/04/11 00:48:38;;;;;;;17.40;3.03;;;8.60;99.90;;;;;;4771903;30;20782;-88
2023/04/11 00:51:04;;;;;;;14.83;2.77;;;8.60;99.90;;;;;;4775650;30;20289;-88
2023/04/11 00:53:31;;;;;;;10.87;2.00;;;8.60;99.90;;;;;;4791532;30;20063;-87
2023/04/11 00:55:58;;;;;;;14.80;3.50;;;8.50;99.90;;;;;;4791394;29;20055;-89
2023/04/11 00:58:25;;;;;;;11.30;2.17;;;8.50;99.90;;;;;;4791021;29;20778;-89
2023/04/11 01:00:51;;;;;;;12.77;2.07;;;8.50;99.90;;;;;;4791220;30;20293;-90
2023/04/11 01:03:17;;;;;;;10.37;2.67;;;8.50;99.90;;;;;;4761366;30;20296;-90
2023/04/11 01:05:44;;;;;;;12.17;2.20;;;8.50;99.90;;;;;;4775072;30;20058;-89
2023/04/11 01:08:11;;;;;;;11.57;2.37;;;8.50;99.90;;;;;;4775378;30;20763;-89
2023/04/11 01:10:38;;;;;;;13.20;2.37;;;8.60;99.90;;;;;;4791687;30;20285;-90
2023/04/11 01:13:04;;;;;;;9.40;1.80;;;8.60;99.90;;;;;;4791207;29;20296;-90
2023/04/11 01:15:30;;;;;;;15.50;2.00;;;8.50;99.90;;;;;;4791095;30;20325;-90
2023/04/11 01:17:56;;;;;;;10.43;1.83;;;8.50;99.90;;;;;;4774966;30;20285;-89
2023/04/11 01:20:23;;;;;;;10.07;1.67;;;8.50;99.90;;;;;;4774845;30;20293;-88
2023/04/11 01:22:49;;;;;;;9.97;1.73;;;8.50;99.90;;;;;;4760173;30;20701;-89
2023/04/11 01:25:15;;;;;;;4.43;1.33;;;8.50;99.90;;;;;;4774878;30;20309;-89
2023/04/11 01:27:42;;;;;;;4.90;0.97;;;8.50;99.90;;;;;;4774839;30;20300;-88
2023/04/11 01:30:08;;;;;;;6.63;1.23;;;8.40;99.90;;;;;;4775037;30;20293;-88
2023/04/11 01:32:34;;;;;;;4.27;1.03;;;8.40;99.90;;;;;;4760169;30;20360;-88
2023/04/11 01:35:02;;;;;;;4.10;0.90;;;8.40;99.90;;;;;;4790769;30;20762;-88
2023/04/11 01:37:28;;;;;;;4.87;1.00;;;8.40;99.90;;;;;;4774837;30;20558;-88
2023/04/11 01:39:53;;;;;;;2.93;0.83;;;8.40;99.90;;;;;;4760889;30;20301;-89
2023/04/11 01:42:21;;;;;;;4.33;1.20;;;8.40;99.90;;;;;;4790664;30;20047;-89
2023/04/11 01:44:49;;;;;;;5.40;0.90;;;8.40;99.90;;;;;;4760613;30;20051;-88
2023/04/11 01:47:15;;;;;;;6.33;0.93;;;8.40;99.90;;;;;;4774770;30;20289;-88
2023/04/11 01:49:41;;;;;;;5.47;1.40;;;8.40;99.90;;;;;;4774615;30;20755;-87
2023/04/11 01:52:07;;;;;;;5.87;1.47;;;8.40;99.90;;;;;;4790482;30;20055;-87
2023/04/11 01:54:33;;;;;;;3.53;1.30;;;8.40;99.90;;;;;;4759967;30;20773;-87
2023/04/11 01:57:00;;;;;;;4.43;1.10;;;8.40;99.90;;;;;;4790369;29;20493;-88
2023/04/11 01:59:26;;;;;;;4.63;1.03;;;8.40;99.90;;;;;;4774055;29;20503;-87
2023/04/11 02:01:51;;;;;;;6.60;1.30;;;8.40;99.90;;;;;;4774300;30;20778;-87
2023/04/11 02:04:17;;;;;;;5.97;1.23;;;8.40;99.90;;;;;;4790171;30;20301;-88
2023/04/11 02:06:43;;;;;;;5.13;1.20;;;8.40;99.90;;;;;;4774582;30;20055;-87
2023/04/11 02:09:09;;;;;;;5.90;1.23;;;8.40;99.90;;;;;;4774297;30;20169;-87
2023/04/11 02:11:34;;;;;;;3.57;1.20;;;8.40;99.90;;;;;;4790085;30;20057;-87
2023/04/11 02:14:01;;;;;;;6.17;1.00;;;8.50;99.90;;;;;;4774515;30;20053;-87
2023/04/11 02:16:28;;;;;;;4.37;1.20;;;8.40;99.90;;;;;;4790075;30;20059;-87
2023/04/11 02:18:55;;;;;;;7.03;1.70;;;8.40;99.90;;;;;;4790499;29;20329;-87
2023/04/11 02:21:21;;;;;;;8.33;1.10;;;8.40;99.90;;;;;;4774031;30;20301;-87
2023/04/11 02:23:47;;;;;;;7.70;1.43;;;8.40;99.90;;;;;;4790569;30;20681;-86
2023/04/11 02:26:12;;;;;;;8.10;1.50;;;8.40;99.90;;;;;;4774405;30;20292;-86
2023/04/11 02:28:38;;;;;;;7.43;1.30;;;8.40;99.90;;;;;;4744433;30;20059;-85
2023/04/11 02:31:04;;;;;;;6.13;1.70;;;8.30;99.90;;;;;;4759329;30;20547;-86
2023/04/11 02:33:31;;;;;;;5.93;1.30;;;8.40;99.90;;;;;;4759151;30;20055;-86
2023/04/11 02:35:57;;;;;;;6.33;1.40;;;8.30;99.90;;;;;;4774294;30;20309;-86
2023/04/11 02:38:22;;;;;;;4.17;1.17;;;8.30;99.90;;;;;;4789658;29;20293;-85
2023/04/11 02:40:48;;;;;;;11.50;1.93;;;8.30;99.90;;;;;;4759174;30;20313;-86
2023/04/11 02:43:15;;;;;;;8.17;1.47;;;8.30;99.90;;;;;;4789263;29;20083;-86
2023/04/11 02:45:40;;;;;;;5.83;1.30;;;8.30;99.90;;;;;;4790000;30;20047;-87
2023/04/11 02:48:07;;;;;;;9.50;1.53;;;8.40;99.90;;;;;;4773844;30;20320;-87
2023/04/11 02:50:32;;;;;;;5.23;1.50;;;8.40;99.90;;;;;;4773642;30;20077;-86
2023/04/11 02:52:58;;;;;;;4.93;1.20;;;8.40;99.90;;;;;;4789408;30;20289;-86
2023/04/11 02:55:24;;;;;;;9.30;1.60;;;8.40;99.90;;;;;;4774305;30;20070;-86
2023/04/11 02:57:50;;;;;;;5.53;1.50;;;8.40;99.90;;;;;;4773142;30;20091;-86
2023/04/11 03:00:19;;;;;;;11.60;2.37;;;8.40;99.90;;;;;;4773103;30;20121;-87
2023/04/11 03:02:44;;;;;;;5.53;1.53;;;8.40;99.90;;;;;;4773383;30;20384;-87
2023/04/11 03:05:10;;;;;;;4.73;1.40;;;8.40;99.90;;;;;;4773185;30;20395;-87
2023/04/11 03:07:37;;;;;;;10.13;1.53;;;8.40;99.90;;;;;;4774068;30;20051;-87
2023/04/11 03:10:03;;;;;;;7.63;1.47;;;8.40;99.90;;;;;;4773243;30;20055;-88
2023/04/11 03:12:29;;;;;;;8.20;1.50;;;8.50;99.90;;;;;;4772754;30;20309;-88
2023/04/11 03:14:54;;;;;;;7.83;1.43;;;8.50;99.90;;;;;;4773888;30;20392;-88
2023/04/11 03:17:20;;;;;;;9.07;1.87;;;8.50;99.90;;;;;;4758482;30;20075;-88
2023/04/11 03:19:46;;;;;;;10.47;1.90;;;8.50;99.90;;;;;;4772723;30;20274;-89
2023/04/11 03:22:12;;;;;;;8.87;1.77;;;8.50;99.90;;;;;;4758531;30;20138;-88
2023/04/11 03:24:40;;;;;;;9.50;2.53;;;8.50;99.90;;;;;;4772944;30;20043;-88
2023/04/11 03:27:06;;;;;;;12.50;2.13;;;8.60;99.90;;;;;;4788940;29;20293;-89
2023/04/11 03:29:34;;;;;;;9.47;1.90;;;8.50;99.90;;;;;;4773006;30;20303;-89
2023/04/11 03:32:00;;;;;;;13.77;2.60;;;8.50;99.90;;;;;;4789366;29;20112;-88
2023/04/11 03:34:26;;;;;;;7.67;2.00;;;8.50;99.90;;;;;;4773152;30;20696;-89
2023/04/11 03:36:52;;;;;;;10.67;1.80;;;8.50;99.90;;;;;;4758235;30;20485;-89
2023/04/11 03:39:21;;;;;;;11.30;2.00;;;8.50;99.90;;;;;;4772868;30;20055;-90
2023/04/11 03:41:47;;;;;;;10.20;2.13;;;8.50;99.90;;;;;;4772889;30;20552;-90
2023/04/11 03:44:13;;;;;;;10.50;1.93;;;8.50;99.90;;;;;;4772723;30;20340;-90
2023/04/11 03:46:39;;;;;;;8.97;1.70;;;8.50;99.90;;;;;;4744058;30;20762;-90
2023/04/11 03:49:04;;;;;;;10.57;2.17;;;8.50;99.90;;;;;;4773194;30;20113;-90
2023/04/11 03:51:30;;;;;;;9.40;2.27;;;8.50;99.90;;;;;;4773015;30;20449;-91
2023/04/11 03:53:56;;;;;;;14.70;3.10;;;8.50;99.90;;;;;;4772884;30;20086;-90
2023/04/11 03:56:22;;;;;;;12.33;2.20;;;8.50;99.90;;;;;;4772705;30;20068;-90
2023/04/11 03:58:48;;;;;;;11.57;2.23;;;8.50;99.90;;;;;;4772681;30;20047;-90
2023/04/11 04:01:14;;;;;;;13.53;2.83;;;8.50;99.90;;;;;;4772982;30;20375;-91
2023/04/11 04:03:39;;;;;;;9.87;2.47;;;8.50;99.90;;;;;;4772535;30;20051;-92
2023/04/11 04:06:05;;;;;;;11.07;2.40;;;8.50;99.90;;;;;;4758488;30;20055;-91
2023/04/11 04:08:32;;;;;;;9.43;2.70;;;8.50;99.90;;;;;;4772575;30;20571;-91
2023/04/11 04:10:58;;;;;;;6.60;2.80;;;8.50;99.90;;;;;;4788164;30;20553;-91
2023/04/11 04:13:23;;;;;;;14.13;2.70;;;8.50;99.90;;;;;;4758350;30;20293;-91
2023/04/11 04:15:50;;;;;;;9.00;2.00;;;8.40;99.90;;;;;;4772634;30;20374;-91
2023/04/11 04:18:16;;;;;;;8.27;2.00;;;8.40;99.90;;;;;;4772658;30;20055;-91
2023/04/11 04:20:41;;;;;;;9.87;2.03;;;8.40;99.90;;;;;;4788401;30;20307;-91
2023/04/11 04:23:07;;;;;;;7.90;1.80;;;8.40;99.90;;;;;;4774195;30;20051;-91
2023/04/11 04:25:33;;;;;;;10.63;2.50;;;8.40;99.90;;;;;;4761170;30;20469;-91
2023/04/11 04:27:59;;;;;;;11.23;2.37;;;8.40;99.90;;;;;;4776301;30;20146;-91
2023/04/11 04:30:27;;;;;;;10.43;2.27;;;8.30;99.90;;;;;;4761169;30;20809;-92
2023/04/11 04:32:57;;;;;;;11.63;2.40;;;8.30;99.90;;;;;;4776151;30;20651;-90
2023/04/11 04:35:24;;;;;;;10.67;2.40;;;8.30;99.90;;;;;;4761438;30;20300;-92
2023/04/11 04:37:50;;;;;;;10.73;2.77;;;8.20;99.90;;;;;;4792335;30;20293;-91
2023/04/11 04:40:19;;;;;;;11.97;2.33;;;8.20;99.90;;;;;;4776162;30;20304;-91
2023/04/11 04:42:48;;;;;;;10.40;2.57;;;8.30;99.90;;;;;;4791515;30;20821;-90
2023/04/11 04:45:15;;;;;;;14.20;2.37;;;8.20;99.90;;;;;;4775581;30;20313;-91
2023/04/11 04:47:41;;;;;;;15.40;2.30;;;8.20;99.90;;;;;;4791770;29;20300;-90
2023/04/11 04:50:07;;;;;;;16.10;2.60;;;8.20;99.90;;;;;;4791583;30;20289;-90
2023/04/11 04:52:33;;;;;;;13.23;2.57;;;8.20;99.90;;;;;;4775711;30;20293;-91
2023/04/11 04:55:00;;;;;;;13.20;2.77;;;8.20;99.90;;;;;;4775738;30;20300;-90
2023/04/11 04:57:27;;;;;;;9.00;2.17;;;8.20;99.90;;;;;;4775470;30;20774;-90
2023/04/11 04:59:57;;;;;;;11.00;2.07;;;8.20;99.90;;;;;;4775653;30;20301;-91
2023/04/11 05:02:24;;;;;;;9.57;2.20;;;8.20;99.90;;;;;;4791760;30;20293;-90
2023/04/11 05:04:50;;;;;;;12.80;2.43;;;8.20;99.90;;;;;;4775309;30;20309;-91
2023/04/11 05:07:17;;;;;;;9.83;2.40;;;8.20;99.90;;;;;;4760900;30;20308;-90
2023/04/11 05:09:43;;;;;;;10.20;2.63;;;8.30;99.90;;;;;;4760864;30;20471;-90
2023/04/11 05:12:09;;;;;;;10.47;2.57;;;8.20;99.90;;;;;;4775219;30;20301;-90
2023/04/11 05:14:34;;;;;;;11.77;2.50;;;8.30;99.90;;;;;;4775129;30;20689;-90
2023/04/11 05:17:00;;;;;;;11.50;2.73;;;8.30;99.90;;;;;;4775565;30;20350;-89
2023/04/11 05:19:26;;;;;;;9.43;3.13;;;8.30;99.90;;;;;;4791651;29;20063;-90
2023/04/11 05:21:52;;;;;;;12.10;2.53;;;8.30;99.90;;;;;;4774832;30;20108;-89
2023/04/11 05:24:18;;;;;;;12.27;2.90;;;8.30;99.90;;;;;;4760479;30;20509;-90
2023/04/11 05:26:44;;;;;;;13.07;2.77;;;8.30;99.90;;;;;;4775606;30;20305;-90
2023/04/11 05:29:10;;;;;;;15.60;2.40;;;8.30;99.90;;;;;;4760604;30;20062;-89
2023/04/11 05:31:36;;;;;;;11.27;2.27;;;8.30;99.90;;;;;;4760148;30;20805;-88
2023/04/11 05:34:02;;;;;;;12.07;2.60;;;8.30;99.90;;;;;;4775193;30;20297;-88
2023/04/11 05:36:28;;;;;;;11.43;2.27;;;8.30;99.90;;;;;;4774345;30;20839;-90
2023/04/11 05:38:54;;;;;;;15.70;3.07;;;8.30;99.90;;;;;;4774868;30;20051;-88
2023/04/11 05:41:20;;;;;;;10.70;2.50;;;8.30;99.90;;;;;;4759631;30;20097;-88
2023/04/11 05:43:46;;;;;;;12.80;2.90;;;8.40;99.90;;;;;;4790218;30;20047;-87
2023/04/11 05:46:12;;;;;;;12.40;2.77;;;8.40;99.90;;;;;;4774353;30;20058;-88
2023/04/11 05:48:38;;;;;;;9.43;2.97;;;8.40;99.90;;;;;;4790942;29;20051;-89
2023/04/11 05:51:04;;;;;;;8.97;1.97;;;8.40;99.90;;;;;;4790449;30;20289;-87
2023/04/11 05:53:30;;;;;;;9.90;1.97;;;8.40;99.90;;;;;;4790812;30;20281;-88
2023/04/11 05:55:56;;;;;;;12.43;2.37;;;8.40;99.90;;;;;;4775275;30;20301;-87
2023/04/11 05:58:23;;;;;;;12.77;2.53;;;8.50;99.90;;;;;;4759826;30;20785;-87
2023/04/11 06:00:49;;;;;;;14.73;3.10;;;8.50;99.90;;;;;;4789941;29;20301;-89
2023/04/11 06:03:15;;;;;;;15.00;3.27;;;8.50;99.90;;;;;;4774351;30;20358;-89
2023/04/11 06:05:41;;;;;;;16.43;2.70;;;8.40;99.90;;;;;;4774788;30;20313;-89
2023/04/11 06:08:07;;;;;;;14.83;2.53;;;8.40;99.90;;;;;;4759530;30;20301;-88
2023/04/11 06:10:34;;;;;;;11.80;2.23;;;8.40;99.90;;;;;;4774301;30;20388;-88
2023/04/11 06:13:00;;;;;;;11.43;2.43;;;8.50;99.90;;;;;;4790071;29;20295;-89
2023/04/11 06:15:26;;;;;;;15.77;2.60;;;8.50;99.90;;;;;;4774943;30;20393;-88
2023/04/11 06:17:52;;;;;;;13.07;2.80;;;8.50;99.90;;;;;;4774342;30;20289;-90
2023/04/11 06:20:19;;;;;;;13.57;3.13;;;8.50;99.90;;;;;;4774476;30;20676;-88
2023/04/11 06:22:49;;;;;;;13.83;3.40;;;8.50;99.90;;;;;;4758912;30;20307;-88
2023/04/11 06:25:19;;;;;;;13.07;2.47;;;8.50;99.90;;;;;;4774534;30;20316;-87
2023/04/11 06:27:45;;;;;;;14.63;3.23;;;8.60;99.90;;;;;;4774137;30;20284;-88
2023/04/11 06:30:11;;;;;;;14.00;3.50;;;8.60;99.90;;;;;;4789689;30;20296;-88
2023/04/11 06:32:37;;;;;;;15.53;3.80;;;8.60;99.90;;;;;;4789955;29;20292;-85
2023/04/11 06:35:04;;;;;;;16.30;3.57;;;8.60;99.90;;;;;;4773824;30;20362;-88
2023/04/11 06:37:30;;;;;;;10.17;2.83;;;8.60;99.90;;;;;;4789611;29;20489;-87
2023/04/11 06:39:59;;;;;;;11.73;2.43;;;8.60;99.90;;;;;;4789453;30;20358;-87
2023/04/11 06:42:25;;;;;;;11.83;2.50;;;8.60;99.90;;;;;;4789664;30;20055;-88
2023/04/11 06:44:51;;;;;;;11.67;3.17;;;8.60;99.90;;;;;;4789403;29;20321;-87
2023/04/11 06:47:16;;;;;;;14.43;3.07;;;8.60;99.90;;;;;;4789120;29;20289;-86
2023/04/11 06:49:42;;;;;;;14.67;2.33;;;8.60;99.90;;;;;;4789397;30;20129;-87
2023/04/11 06:52:08;;;;;;;13.67;2.60;;;8.70;99.90;;;;;;4789841;29;20063;-87
2023/04/11 06:54:33;;;;;;;14.77;2.70;;;8.70;99.90;;;;;;4774338;30;20056;-87
2023/04/11 06:56:59;;;;;;;16.80;3.27;;;8.80;99.90;;;;;;4758664;30;20096;-88
2023/04/11 06:59:25;;;;;;;16.07;3.47;;;8.90;99.90;;;;;;4789046;30;20063;-86
2023/04/11 07:01:51;;;;;;;14.20;3.57;;;9.10;99.90;;;;;;4789946;29;20335;-86
2023/04/11 07:04:17;;;;;;;13.97;2.37;;;9.30;99.90;;;;;;4773523;30;20059;-87
2023/04/11 07:06:42;;;;;;;9.60;2.57;;;9.40;99.90;;;;;;4774014;30;20400;-86
2023/04/11 07:09:14;;;;;;;11.40;2.30;;;9.60;99.90;;;;;;4788857;30;20097;-86
2023/04/11 07:11:40;;;;;;;10.97;2.80;;;9.90;99.90;;;;;;4789522;30;20054;-85
2023/04/11 07:14:06;;;;;;;12.90;4.10;;;10.10;99.90;;;;;;4772896;30;20300;-88
2023/04/11 07:16:32;;;;;;;12.87;2.57;;;10.20;99.90;;;;;;4789059;30;20062;-85
2023/04/11 07:18:58;;;;;;;13.40;3.00;;;10.50;99.90;;;;;;4788984;30;20289;-86
2023/04/11 07:21:26;;;;;;;11.00;2.77;;;11.00;99.90;;;;;;4788940;30;20134;-86
2023/04/11 07:23:52;;;;;;;11.83;2.83;;;11.50;99.90;;;;;;4788627;30;20797;-86
2023/04/11 07:26:18;;;;;;;10.73;2.30;;;11.50;99.90;;;;;;4789372;30;20320;-87
2023/04/11 07:28:44;;;;;;;14.00;3.77;;;11.30;99.90;;;;;;4773470;30;20305;-86
2023/04/11 07:31:13;;;;;;;11.77;2.30;;;10.90;99.90;;;;;;4773138;30;20051;-86
2023/04/11 07:33:42;;;;;;;11.70;3.13;;;10.70;99.90;;;;;;4788372;30;20875;-86
2023/04/11 07:36:08;;;;;;;11.47;2.70;;;10.50;99.90;;;;;;4788755;30;20292;-87
2023/04/11 07:38:36;;;;;;;11.33;2.20;;;10.50;99.90;;;;;;4773171;30;20596;-86
2023/04/11 07:41:03;;;;;;;12.37;2.63;;;10.40;99.90;;;;;;4788622;29;20405;-87
2023/04/11 07:43:29;;;;;;;10.63;2.53;;;10.40;99.90;;;;;;4773081;30;20289;-87
2023/04/11 07:45:56;;;;;;;14.83;2.40;;;10.70;99.90;;;;;;4772584;30;20450;-87
2023/04/11 07:48:24;;;;;;;10.60;2.67;;;10.80;99.90;;;;;;4772856;30;20333;-88
2023/04/11 07:50:50;;;;;;;15.90;3.03;;;10.70;99.90;;;;;;4773006;30;20326;-86
2023/04/11 07:53:16;;;;;;;12.40;2.83;;;10.50;99.90;;;;;;4788461;30;20297;-86
2023/04/11 07:55:42;;;;;;;14.97;3.00;;;10.30;99.90;;;;;;4788937;30;20383;-88
2023/04/11 07:58:08;;;;;;;14.57;2.37;;;10.40;99.90;;;;;;4788322;30;20048;-88
2023/04/11 08:00:34;;;;;;;10.00;2.40;;;10.50;99.90;;;;;;4788973;29;20505;-88
2023/04/11 08:03:04;;;;;;;12.63;3.20;;;10.60;99.90;;;;;;4788497;30;20059;-87
2023/04/11 08:05:31;;;;;;;13.40;2.07;;;10.70;99.90;;;;;;4788401;30;20051;-86
2023/04/11 08:07:57;;;;;;;14.77;2.33;;;10.90;99.90;;;;;;4788358;30;20380;-89
2023/04/11 08:10:25;;;;;;;9.93;2.50;;;11.10;99.90;;;;;;4757762;30;20371;-89
2023/04/11 08:12:51;;;;;;;10.93;2.13;;;11.20;99.90;;;;;;4772550;30;20063;-87
2023/04/11 08:15:18;;;;;;;10.30;2.43;;;11.30;99.90;;;;;;4772714;30;20307;-87
2023/04/11 08:17:44;;;;;;;8.77;2.20;;;11.40;99.90;;;;;;4788366;30;20055;-87
2023/04/11 08:20:11;;;;;;;13.07;2.83;;;11.50;99.90;;;;;;4788102;30;20315;-87
2023/04/11 08:22:43;;;;;;;11.73;2.53;;;11.50;99.90;;;;;;4772428;30;20304;-86
2023/04/11 08:25:10;;;;;;;10.20;2.20;;;11.60;99.90;;;;;;4772507;30;20666;-86
2023/04/11 08:27:37;;;;;;;15.83;3.77;;;11.50;99.90;;;;;;4788249;29;20353;-86
2023/04/11 08:30:04;;;;;;;11.90;2.87;;;11.60;99.90;;;;;;4788237;30;20308;-87
2023/04/11 08:32:30;;;;;;;9.70;2.27;;;11.70;99.90;;;;;;4788237;30;20782;-86
2023/04/11 08:34:56;;;;;;;10.23;2.40;;;11.90;99.90;;;;;;4788163;30;20295;-87
2023/04/11 08:37:22;;;;;;;13.03;3.57;;;12.00;99.90;;;;;;4772353;30;20603;-88
2023/04/11 08:39:47;;;;;;;8.40;1.80;;;11.90;99.90;;;;;;4772241;30;20075;-87
2023/04/11 08:42:28;;;;;;;8.73;1.97;;;11.80;99.90;;;;;;4788349;30;20138;-89
2023/04/11 08:44:59;;;;;;;11.20;3.53;;;11.50;99.90;;;;;;4771905;30;20051;-88
2023/04/11 08:47:25;;;;;;;14.17;2.70;;;11.30;99.90;;;;;;4788063;30;20362;-88
2023/04/11 08:49:52;;;;;;;15.70;2.97;;;11.30;99.90;;;;;;4772729;30;20794;-89
2023/04/11 08:52:18;;;;;;;10.40;3.17;;;11.40;99.90;;;;;;4788692;30;20300;-90
2023/04/11 08:54:50;;;;;;;15.60;4.40;;;11.10;99.90;;;;;;4787987;30;20785;-89
2023/04/11 08:57:27;;;;;;;11.23;2.60;;;11.00;99.90;;;;;;4788812;30;20296;-87
2023/04/11 08:59:54;;;;;;;10.20;2.30;;;10.70;99.90;;;;;;4788070;30;20284;-88
2023/04/11 09:02:20;;;;;;;11.37;1.83;;;10.60;99.90;;;;;;4788756;30;20303;-87
2023/04/11 09:04:46;;;;;;;10.17;1.97;;;10.70;99.90;;;;;;4773051;30;20362;-87
2023/04/11 09:07:14;;;;;;;8.77;1.90;;;10.70;99.90;;;;;;4758539;30;20293;-89
2023/04/11 09:09:40;;;;;;;13.63;2.60;;;10.60;99.90;;;;;;4772156;30;20085;-88
2023/04/11 09:12:06;;;;;;;14.87;2.13;;;10.60;99.90;;;;;;4791565;29;20293;-87
2023/04/11 09:14:31;;;;;;;12.77;2.80;;;10.70;99.90;;;;;;4776391;30;20055;-88
2023/04/11 09:17:11;;;;;;;11.07;2.17;;;10.70;99.90;;;;;;4791959;30;20090;-88
2023/04/11 09:19:39;;;;;;;12.80;3.17;;;10.70;99.90;;;;;;4792033;30;20404;-88
2023/04/11 09:22:06;;;;;;;12.20;2.63;;;10.70;99.90;;;;;;4760362;30;20293;-89
2023/04/11 09:24:32;;;;;;;11.43;2.50;;;10.80;99.90;;;;;;4791894;29;20370;-87
2023/04/11 09:27:12;;;;;;;14.00;3.00;;;10.90;99.90;;;;;;4792798;29;20289;-90
2023/04/11 09:29:46;;;;;;;12.20;2.50;;;10.90;99.90;;;;;;4775970;30;20485;-87
2023/04/11 09:32:28;;;;;;;11.63;2.57;;;10.70;99.90;;;;;;4790878;30;20292;-86
2023/04/11 09:35:22;;;;;;;13.60;3.17;;;10.50;99.90;;;;;;4775167;30;20301;-85
2023/04/11 09:37:59;;;;;;;12.37;2.57;;;10.50;99.90;;;;;;4790767;30;20304;-87
2023/04/11 09:40:32;;;;;;;10.73;2.10;;;10.60;99.90;;;;;;4791418;30;20366;-86
2023/04/11 09:43:00;;;;;;;14.83;3.40;;;10.50;99.90;;;;;;4775382;30;20368;-87
2023/04/11 09:45:27;;;;;;;14.77;3.27;;;10.60;99.90;;;;;;4774722;30;20720;-87
2023/04/11 09:47:54;;;;;;;10.73;2.53;;;10.70;99.90;;;;;;4774936;30;20296;-86
2023/04/11 09:50:21;;;;;;;15.23;3.20;;;10.80;99.90;;;;;;4775008;30;20296;-87
2023/04/11 09:52:47;;;;;;;17.03;2.77;;;10.90;99.90;;;;;;4790470;29;20324;-87
2023/04/11 09:55:23;;;;;;;16.50;3.13;;;11.10;99.90;;;;;;4790873;29;20296;-87
2023/04/11 09:57:51;;;;;;;12.67;2.30;;;11.40;99.90;;;;;;4774783;30;20288;-88
2023/04/11 10:00:23;;;;;;;11.13;2.40;;;11.50;99.90;;;;;;4790168;30;20297;-88
2023/04/11 10:02:51;;;;;;;12.87;2.43;;;11.50;99.90;;;;;;4774867;30;20297;-89
2023/04/11 10:05:18;;;;;;;12.03;2.43;;;11.40;99.90;;;;;;4774194;30;20313;-89
2023/04/11 10:07:46;;;;;;;14.67;2.70;;;11.20;99.90;;;;;;4789958;30;20786;-90
2023/04/11 10:10:20;;;;;;;11.10;2.17;;;11.00;99.90;;;;;;4775128;30;20297;-89
2023/04/11 10:12:46;;;;;;;9.80;1.88;;;10.90;99.90;;;;;;4790169;30;20293;-89
2023/04/11 10:15:12;;;;;;;7.80;1.70;;;10.80;99.90;;;;;;4790192;29;20051;-90
2023/04/11 10:17:39;;;;;;;6.93;1.77;;;10.70;99.90;;;;;;4790125;29;20052;-89
2023/04/11 10:20:30;;;;;;;8.07;1.50;;;10.50;99.90;;;;;;4774998;30;20347;-89
2023/04/11 10:23:00;;;;;;;11.63;2.07;;;10.40;99.90;;;;;;4789965;29;20297;-90
2023/04/11 10:25:26;;;;;;;15.47;3.20;;;10.40;99.90;;;;;;4773888;30;20309;-90
2023/04/11 10:27:59;;;;;;;13.80;3.53;;;10.50;99.90;;;;;;4789893;30;20372;-90
2023/04/11 10:30:40;;;;;;;10.83;2.20;;;10.60;99.90;;;;;;4790964;30;20619;-88
2023/04/11 10:33:16;;;;;;;12.90;2.33;;;10.80;99.90;;;;;;4790301;30;20293;-90
2023/04/11 10:36:08;;;;;;;13.50;2.83;;;10.90;99.90;;;;;;4789808;30;20285;-87
2023/04/11 10:38:40;;;;;;;8.13;1.73;;;10.80;99.90;;;;;;4781451;29;20404;-89
2023/04/11 10:41:17;;;;;;;7.53;1.37;;;10.60;99.90;;;;;;4773775;30;20828;-90
2023/04/11 10:43:44;;;;;;;9.27;1.60;;;10.30;99.90;;;;;;4789672;30;20289;-91
2023/04/11 10:46:21;;;;;;;5.63;1.50;;;10.10;99.90;;;;;;4790151;29;20657;-92
2023/04/11 10:49:02;;;;;;;10.00;2.53;;;10.00;99.90;;;;;;4773782;30;20383;-89
2023/04/11 10:51:32;;;;;;;12.70;2.73;;;9.80;99.90;;;;;;4773769;30;20790;-85
2023/04/11 10:53:59;;;;;;;9.33;2.43;;;9.70;99.90;;;;;;4789401;30;20292;-84
2023/04/11 10:56:47;;;;;;;7.57;1.60;;;9.50;99.90;;;;;;4789425;30;20363;-86
2023/04/11 10:59:48;;;;;;;7.20;1.63;;;9.30;99.90;;;;;;4773677;30;20767;-87
2023/04/11 11:02:15;;;;;;;13.27;1.93;;;9.20;99.90;;;;;;4735299;30;20806;-87
2023/04/11 11:04:40;;;;;;;10.77;2.03;;;9.20;99.90;;;;;;4759218;30;20313;-87
2023/04/11 11:07:12;;;;;;;14.93;2.90;;;9.30;99.90;;;;;;4774066;30;20684;-87
2023/04/11 11:09:38;;;;;;;14.13;2.17;;;9.40;99.90;;;;;;4789245;30;20100;-85
2023/04/11 11:12:11;;;;;;;13.33;2.67;;;9.40;99.90;;;;;;4773265;30;20301;-86
2023/04/11 11:14:39;;;;;;;11.83;2.00;;;9.50;99.90;;;;;;4789869;30;20277;-86
2023/04/11 11:17:05;;;;;;;11.10;2.90;;;9.50;99.90;;;;;;4773168;30;20297;-87
2023/04/11 11:19:32;;;;;;;12.20;1.70;;;9.50;99.90;;;;;;4789660;30;20297;-86
2023/04/11 11:22:02;;;;;;;12.90;2.17;;;9.40;99.90;;;;;;4773573;30;20292;-88
2023/04/11 11:24:27;;;;;;;12.77;2.17;;;9.40;99.90;;;;;;4788857;30;20778;-89
2023/04/11 11:26:56;;;;;;;10.87;2.57;;;9.50;99.90;;;;;;4788882;29;20353;-87
2023/04/11 11:29:36;;;;;;;9.73;2.03;;;9.60;99.90;;;;;;4773763;30;20058;-89
2023/04/11 11:32:03;;;;;;;13.33;2.10;;;9.70;99.90;;;;;;4772977;29;20346;-88
2023/04/11 11:34:30;;;;;;;15.00;2.90;;;9.70;99.90;;;;;;4772257;30;20289;-90
2023/04/11 11:37:00;;;;;;;12.00;2.27;;;9.80;99.90;;;;;;4772858;30;20289;-90
2023/04/11 11:39:27;;;;;;;13.20;2.33;;;9.80;99.90;;;;;;4773207;30;20293;-90
2023/04/11 11:41:54;;;;;;;13.10;2.80;;;9.90;99.90;;;;;;4773701;30;20301;-89
2023/04/11 11:44:22;;;;;;;10.87;1.80;;;10.00;99.90;;;;;;4788798;30;20650;-89
2023/04/11 11:47:08;;;;;;;13.00;2.73;;;10.00;99.90;;;;;;4788707;30;20289;-90
2023/04/11 11:49:50;;;;;;;12.33;2.17;;;10.00;99.90;;;;;;4773057;30;20407;-89
2023/04/11 11:52:42;;;;;;;12.07;2.87;;;10.10;99.90;;;;;;4772810;30;20304;-89
2023/04/11 11:55:29;;;;;;;15.30;3.13;;;10.20;99.90;;;;;;4789322;30;20285;-89
2023/04/11 11:58:00;;;;;;;12.10;2.63;;;10.30;99.90;;;;;;4788472;30;20289;-87
2023/04/11 12:00:27;;;;;;;11.77;2.40;;;10.40;99.90;;;;;;4772996;29;20300;-88
2023/04/11 12:02:54;;;;;;;18.17;2.93;;;10.30;99.90;;;;;;4788995;30;20619;-89
2023/04/11 12:05:23;;;;;;;10.23;2.33;;;10.20;99.90;;;;;;4773011;30;20392;-88
2023/04/11 12:07:57;;;;;;;9.43;2.10;;;10.20;99.90;;;;;;4788704;29;20293;-89
2023/04/11 12:10:23;;;;;;;7.30;2.20;;;10.30;99.90;;;;;;4758693;30;20304;-88
2023/04/11 12:12:49;;;;;;;8.73;2.17;;;10.30;99.90;;;;;;4788283;29;20351;-89
2023/04/11 12:15:18;;;;;;;10.60;2.97;;;10.40;99.90;;;;;;4772336;30;20354;-90
2023/04/11 12:17:51;;;;;;;13.30;2.40;;;10.40;99.90;;;;;;4788791;30;20289;-90
2023/04/11 12:20:25;;;;;;;18.30;4.23;;;10.40;99.90;;;;;;4788591;30;20335;-88
2023/04/11 12:22:52;;;;;;;11.43;2.67;;;10.40;99.90;;;;;;4788561;30;20360;-88
2023/04/11 12:25:18;;;;;;;11.93;2.53;;;10.30;99.90;;;;;;4757086;30;20336;-90
2023/04/11 12:27:44;;;;;;;17.17;3.10;;;10.30;99.90;;;;;;4772021;30;20340;-89
2023/04/11 12:30:13;;;;;;;12.10;2.30;;;10.30;99.90;;;;;;4788551;30;20055;-88
2023/04/11 12:32:40;;;;;;;10.27;2.30;;;10.30;99.90;;;;;;4772549;30;20351;-89
2023/04/11 12:35:06;;;;;;;11.40;2.37;;;10.30;99.90;;;;;;4788608;30;20282;-91
2023/04/11 12:37:33;;;;;;;13.27;2.60;;;10.40;99.90;;;;;;4788684;30;20289;-89
2023/04/11 12:39:59;;;;;;;11.33;2.40;;;10.60;99.90;;;;;;4788359;29;20289;-89
2023/04/11 12:42:25;;;;;;;12.93;2.93;;;10.70;99.90;;;;;;4757770;30;20801;-89
2023/04/11 12:44:50;;;;;;;11.50;2.90;;;10.90;99.90;;;;;;4788898;29;20309;-91
2023/04/11 12:47:16;;;;;;;12.43;2.80;;;10.90;99.90;;;;;;4760985;30;20063;-89
2023/04/11 12:49:42;;;;;;;12.27;2.27;;;11.00;99.90;;;;;;4791634;30;20090;-91